Time;durP1;ratioP1;P1;durP2;ratioP2;P2;SDS_P1;SDS_P2;PMS_P1;PMS_P2;Temp;Humidity;BMP_temperature;BMP_pressure;BME280_temperature;BME280_humidity;BME280_pressure;Samples;Min_cycle;Max_cycle;Signal;HPM_P1;HPM_P2
2023/04/03 00:01:17;;;;;;;1.38;1.20;;;3.40;99.90;;;;;;6070633;23;93303;-74
2023/04/03 00:03:44;;;;;;;1.95;0.93;;;3.30;99.90;;;;;;6096445;23;92738;-74
2023/04/03 00:06:12;;;;;;;1.75;1.27;;;3.30;99.90;;;;;;6070560;23;92422;-74
2023/04/03 00:08:40;;;;;;;2.60;1.10;;;3.30;99.90;;;;;;6096114;23;92379;-74
2023/04/03 00:11:07;;;;;;;3.15;0.90;;;3.20;99.90;;;;;;6068372;23;97983;-74
2023/04/03 00:13:35;;;;;;;1.75;1.00;;;3.20;99.90;;;;;;6069307;23;98203;-74
2023/04/03 00:16:03;;;;;;;1.10;1.00;;;3.20;99.90;;;;;;6096145;23;100647;-75
2023/04/03 00:18:30;;;;;;;1.20;0.93;;;3.20;99.90;;;;;;6069799;23;92403;-74
2023/04/03 00:20:57;;;;;;;2.83;1.52;;;3.10;99.90;;;;;;6070287;23;93305;-74
2023/04/03 00:23:24;;;;;;;2.05;0.98;;;3.10;99.90;;;;;;6070130;23;95421;-74
2023/04/03 00:25:53;;;;;;;4.28;1.30;;;3.10;99.90;;;;;;6096498;23;92353;-74
2023/04/03 00:28:20;;;;;;;4.18;1.40;;;3.10;99.90;;;;;;6070355;23;91766;-74
2023/04/03 00:30:49;;;;;;;2.28;1.35;;;3.00;99.90;;;;;;6095882;23;92983;-74
2023/04/03 00:33:16;;;;;;;2.58;1.35;;;3.00;99.90;;;;;;6070273;23;92994;-74
2023/04/03 00:35:44;;;;;;;1.23;1.13;;;3.00;99.90;;;;;;6094768;23;94668;-75
2023/04/03 00:38:11;;;;;;;1.50;1.20;;;2.90;99.90;;;;;;6069958;23;92512;-74
2023/04/03 00:40:42;;;;;;;2.80;1.20;;;2.90;99.90;;;;;;6095837;23;93180;-74
2023/04/03 00:43:22;;;;;;;2.20;1.20;;;2.90;99.90;;;;;;6069940;23;95416;-74
2023/04/03 00:45:51;;;;;;;3.45;1.13;;;2.90;99.90;;;;;;6069509;23;92458;-74
2023/04/03 00:48:22;;;;;;;2.20;1.13;;;2.90;99.90;;;;;;6096347;23;92353;-74
2023/04/03 00:50:50;;;;;;;1.85;1.10;;;2.80;99.90;;;;;;6095817;23;93133;-74
2023/04/03 00:53:33;;;;;;;2.15;1.23;;;2.70;99.90;;;;;;6070162;23;95392;-74
2023/04/03 00:56:01;;;;;;;1.30;1.20;;;2.80;99.90;;;;;;6070227;23;92409;-75
2023/04/03 00:58:37;;;;;;;2.30;1.30;;;2.70;99.90;;;;;;6045752;23;92488;-75
2023/04/03 01:01:08;;;;;;;2.15;1.10;;;2.70;99.90;;;;;;6068703;23;94746;-75
2023/04/03 01:03:35;;;;;;;1.80;1.10;;;2.70;99.90;;;;;;6095864;23;95563;-75
2023/04/03 01:06:04;;;;;;;1.70;1.20;;;2.60;99.90;;;;;;6045864;23;92484;-75
2023/04/03 01:08:31;;;;;;;2.60;1.58;;;2.60;99.90;;;;;;6069407;23;92428;-75
2023/04/03 01:10:58;;;;;;;3.40;1.33;;;2.60;99.90;;;;;;6069491;23;95797;-75
2023/04/03 01:13:29;;;;;;;3.05;1.30;;;2.60;99.90;;;;;;6045478;23;94796;-75
2023/04/03 01:15:57;;;;;;;1.33;1.23;;;2.60;99.90;;;;;;6070071;23;92450;-75
2023/04/03 01:18:25;;;;;;;1.63;1.00;;;2.60;99.90;;;;;;6070350;23;91751;-75
2023/04/03 01:20:56;;;;;;;7.85;1.52;;;2.50;99.90;;;;;;6069173;23;95851;-75
2023/04/03 01:23:34;;;;;;;2.72;1.38;;;2.50;99.90;;;;;;6045930;23;95343;-75
2023/04/03 01:26:03;;;;;;;2.03;1.00;;;2.50;99.90;;;;;;6094818;23;94721;-75
2023/04/03 01:28:35;;;;;;;3.08;1.40;;;2.40;99.90;;;;;;6069814;23;92731;-75
2023/04/03 01:31:23;;;;;;;4.25;1.30;;;2.50;99.90;;;;;;6095891;23;92303;-75
2023/04/03 01:33:51;;;;;;;3.67;1.45;;;2.40;99.90;;;;;;6095797;23;93001;-75
2023/04/03 01:36:24;;;;;;;1.55;1.20;;;2.40;99.90;;;;;;6045705;23;92488;-75
2023/04/03 01:38:52;;;;;;;4.03;1.58;;;2.40;99.90;;;;;;6094265;23;92470;-75
2023/04/03 01:41:20;;;;;;;2.38;1.15;;;2.40;99.90;;;;;;6095912;23;93097;-75
2023/04/03 01:43:49;;;;;;;1.75;1.45;;;2.30;99.90;;;;;;6069481;23;94866;-75
2023/04/03 01:46:17;;;;;;;4.70;1.83;;;2.30;99.90;;;;;;6069739;23;92434;-75
2023/04/03 01:48:44;;;;;;;3.03;1.67;;;2.20;99.90;;;;;;6045533;23;92471;-75
2023/04/03 01:51:11;;;;;;;5.53;1.42;;;2.30;99.90;;;;;;6068000;23;98199;-75
2023/04/03 01:53:38;;;;;;;3.08;1.67;;;2.20;99.90;;;;;;6095520;23;95224;-75
2023/04/03 01:56:05;;;;;;;3.53;1.40;;;2.20;99.90;;;;;;6069706;23;92483;-75
2023/04/03 01:58:32;;;;;;;2.60;1.60;;;2.20;99.90;;;;;;6045634;23;92441;-75
2023/04/03 02:01:00;;;;;;;3.10;1.65;;;2.20;99.90;;;;;;6021158;23;95284;-75
2023/04/03 02:03:28;;;;;;;2.95;1.70;;;2.10;99.90;;;;;;6069467;23;95555;-75
2023/04/03 02:05:55;;;;;;;4.80;1.63;;;2.10;99.90;;;;;;6095800;23;92394;-75
2023/04/03 02:08:22;;;;;;;3.60;1.80;;;2.10;99.90;;;;;;6070061;23;91739;-75
2023/04/03 02:10:50;;;;;;;3.17;1.52;;;2.10;99.90;;;;;;6069109;23;95623;-75
2023/04/03 02:13:17;;;;;;;2.40;1.50;;;2.10;99.90;;;;;;6045151;23;95536;-75
2023/04/03 02:15:45;;;;;;;2.08;1.45;;;2.00;99.90;;;;;;6068026;23;94776;-75
2023/04/03 02:18:15;;;;;;;2.65;1.50;;;2.00;99.90;;;;;;6069505;23;92454;-75
2023/04/03 02:20:42;;;;;;;3.92;1.80;;;2.00;99.90;;;;;;6045010;23;95567;-75
2023/04/03 02:23:10;;;;;;;3.55;1.50;;;2.00;99.90;;;;;;6069302;23;94292;-75
2023/04/03 02:25:37;;;;;;;3.22;1.52;;;1.90;99.90;;;;;;6070163;23;92394;-75
2023/04/03 02:28:05;;;;;;;2.58;1.63;;;1.90;99.90;;;;;;6093895;23;92395;-75
2023/04/03 02:30:32;;;;;;;4.28;1.63;;;1.90;99.90;;;;;;6093720;23;96184;-75
2023/04/03 02:32:59;;;;;;;3.72;1.42;;;1.90;99.90;;;;;;6096056;23;92876;-75
2023/04/03 02:35:26;;;;;;;3.53;1.75;;;1.90;99.90;;;;;;6069723;23;92394;-75
2023/04/03 02:37:55;;;;;;;3.83;1.55;;;1.80;99.90;;;;;;6069300;23;92746;-75
2023/04/03 02:40:23;;;;;;;3.92;1.77;;;1.80;99.90;;;;;;6043695;23;97083;-75
2023/04/03 02:42:50;;;;;;;2.92;1.45;;;1.80;99.90;;;;;;6068924;23;96776;-75
2023/04/03 02:45:18;;;;;;;4.20;2.13;;;1.70;99.90;;;;;;6069587;23;92479;-75
2023/04/03 02:47:45;;;;;;;3.45;1.92;;;1.70;99.90;;;;;;6045085;23;92416;-75
2023/04/03 02:50:12;;;;;;;4.15;1.85;;;1.70;99.90;;;;;;6069182;23;95615;-75
2023/04/03 02:52:39;;;;;;;4.05;1.70;;;1.60;99.90;;;;;;6069307;23;94126;-75
2023/04/03 02:55:07;;;;;;;2.92;1.55;;;1.60;99.90;;;;;;6045189;23;92440;-75
2023/04/03 02:57:35;;;;;;;4.65;1.80;;;1.60;99.90;;;;;;6069898;23;91762;-75
2023/04/03 03:00:02;;;;;;;4.60;1.92;;;1.50;99.90;;;;;;6068876;23;95807;-75
2023/04/03 03:02:29;;;;;;;3.58;1.90;;;1.50;99.90;;;;;;6095538;23;92349;-75
2023/04/03 03:04:56;;;;;;;3.90;1.85;;;1.40;99.90;;;;;;6067708;23;94887;-75
2023/04/03 03:07:24;;;;;;;3.88;1.90;;;1.40;99.90;;;;;;6095116;23;96332;-75
2023/04/03 03:09:51;;;;;;;5.35;1.88;;;1.40;99.90;;;;;;6094937;23;93427;-75
2023/04/03 03:12:21;;;;;;;5.53;2.10;;;1.40;99.90;;;;;;6039865;23;95527;-75
2023/04/03 03:14:49;;;;;;;4.82;2.35;;;1.30;99.90;;;;;;6064447;23;92457;-75
2023/04/03 03:17:17;;;;;;;3.83;1.73;;;1.30;99.90;;;;;;6066254;23;92310;-75
2023/04/03 03:19:45;;;;;;;4.20;2.22;;;1.20;99.90;;;;;;6064070;23;95866;-75
2023/04/03 03:22:12;;;;;;;4.20;1.80;;;1.20;99.90;;;;;;6088965;23;93638;-75
2023/04/03 03:24:39;;;;;;;4.43;2.00;;;1.10;99.90;;;;;;6066186;23;92359;-75
2023/04/03 03:27:06;;;;;;;3.80;2.25;;;1.10;99.90;;;;;;6040003;23;92411;-75
2023/04/03 03:29:33;;;;;;;3.97;2.28;;;1.10;99.90;;;;;;6062641;23;97567;-75
2023/04/03 03:32:01;;;;;;;5.25;1.98;;;1.00;99.90;;;;;;6063552;23;97883;-75
2023/04/03 03:34:28;;;;;;;6.35;2.10;;;1.00;99.90;;;;;;6064426;23;93121;-75
2023/04/03 03:36:55;;;;;;;3.72;2.00;;;1.00;99.90;;;;;;6065797;23;92415;-75
2023/04/03 03:39:22;;;;;;;4.00;2.03;;;1.00;99.90;;;;;;6063942;23;95989;-75
2023/04/03 03:41:49;;;;;;;5.30;2.30;;;1.00;99.90;;;;;;6064027;23;95675;-75
2023/04/03 03:44:16;;;;;;;6.53;2.20;;;1.00;99.90;;;;;;6064310;23;92522;-75
2023/04/03 03:46:43;;;;;;;4.57;2.38;;;0.90;99.90;;;;;;6064624;23;91720;-75
2023/04/03 03:49:11;;;;;;;3.95;2.20;;;0.90;99.90;;;;;;6065472;23;92941;-75
2023/04/03 03:51:39;;;;;;;4.90;2.70;;;0.90;99.90;;;;;;6063804;23;94769;-75
2023/04/03 03:54:07;;;;;;;6.07;2.85;;;0.90;99.90;;;;;;6062466;23;95700;-75
2023/04/03 03:56:35;;;;;;;5.57;2.47;;;0.90;99.90;;;;;;6039955;23;92850;-75
2023/04/03 03:59:02;;;;;;;7.65;2.72;;;0.90;99.90;;;;;;6063627;23;95607;-75
2023/04/03 04:01:31;;;;;;;6.93;2.60;;;0.90;99.90;;;;;;6039793;23;94276;-75
2023/04/03 04:03:58;;;;;;;8.30;3.33;;;0.90;99.90;;;;;;6064063;23;92402;-75
2023/04/03 04:06:29;;;;;;;2.90;2.40;;;0.90;99.90;;;;;;6064244;23;92503;-75
2023/04/03 04:09:00;;;;;;;4.88;2.47;;;0.90;99.90;;;;;;6063642;23;95511;-75
2023/04/03 04:11:28;;;;;;;3.65;2.35;;;0.90;99.90;;;;;;6063993;23;94268;-75
2023/04/03 04:13:55;;;;;;;5.47;2.88;;;0.90;99.90;;;;;;6044351;23;92414;-75
2023/04/03 04:16:25;;;;;;;4.32;2.95;;;0.90;99.90;;;;;;6068624;23;92415;-75
2023/04/03 04:18:53;;;;;;;7.40;3.47;;;0.90;99.90;;;;;;6066896;23;97853;-75
2023/04/03 04:21:20;;;;;;;6.72;2.90;;;0.80;99.90;;;;;;6069781;23;97896;-75
2023/04/03 04:23:50;;;;;;;8.02;2.95;;;0.80;99.90;;;;;;6046452;23;93317;-75
2023/04/03 04:26:17;;;;;;;6.45;2.85;;;0.80;99.90;;;;;;6069831;23;92426;-75
2023/04/03 04:28:44;;;;;;;5.03;3.03;;;0.80;99.90;;;;;;6045677;23;95922;-75
2023/04/03 04:31:11;;;;;;;8.90;3.17;;;0.80;99.90;;;;;;6069623;23;95513;-75
2023/04/03 04:33:38;;;;;;;4.50;2.72;;;0.80;99.90;;;;;;6070170;23;92440;-75
2023/04/03 04:36:07;;;;;;;7.88;3.13;;;0.80;99.90;;;;;;6070315;23;92192;-75
2023/04/03 04:38:35;;;;;;;6.97;3.38;;;0.70;99.90;;;;;;6069777;23;95749;-75
2023/04/03 04:41:02;;;;;;;9.25;3.28;;;0.80;99.90;;;;;;6095926;23;92891;-75
2023/04/03 04:43:29;;;;;;;4.25;3.00;;;0.70;99.90;;;;;;6044443;23;95499;-75
2023/04/03 04:46:04;;;;;;;7.20;3.22;;;0.70;99.90;;;;;;6070435;23;92425;-75
2023/04/03 04:48:36;;;;;;;5.72;3.15;;;0.80;99.90;;;;;;6023691;23;95434;-75
2023/04/03 04:51:04;;;;;;;6.47;3.38;;;0.70;99.90;;;;;;6069321;23;95535;-75
2023/04/03 04:53:32;;;;;;;6.93;3.38;;;0.70;99.90;;;;;;6069950;23;92872;-75
2023/04/03 04:56:00;;;;;;;6.20;3.17;;;0.70;99.90;;;;;;6069578;23;92464;-75
2023/04/03 04:58:27;;;;;;;7.18;3.10;;;0.70;99.90;;;;;;6096049;23;93143;-75
2023/04/03 05:01:01;;;;;;;6.55;3.40;;;0.70;99.90;;;;;;6070173;23;95516;-75
2023/04/03 05:03:29;;;;;;;9.73;3.75;;;0.70;99.90;;;;;;6070190;23;92427;-75
2023/04/03 05:05:56;;;;;;;8.85;3.63;;;0.70;99.90;;;;;;6069952;23;92481;-75
2023/04/03 05:08:24;;;;;;;8.27;3.45;;;0.70;99.90;;;;;;6067936;23;98115;-75
2023/04/03 05:10:51;;;;;;;8.43;3.58;;;0.70;99.90;;;;;;6045804;23;95278;-75
2023/04/03 05:13:20;;;;;;;7.20;3.63;;;0.70;99.90;;;;;;6064353;23;92549;-75
2023/04/03 05:15:48;;;;;;;7.13;3.92;;;0.70;99.90;;;;;;6064974;23;92425;-75
2023/04/03 05:18:15;;;;;;;9.82;4.13;;;0.70;99.90;;;;;;6064670;23;95547;-75
2023/04/03 05:20:43;;;;;;;11.93;4.20;;;0.70;99.90;;;;;;6040500;23;93919;-75
2023/04/03 05:23:11;;;;;;;8.70;3.70;;;0.80;99.90;;;;;;6064533;23;92456;-75
2023/04/03 05:25:39;;;;;;;7.45;4.13;;;0.70;99.90;;;;;;6065736;23;91662;-75
2023/04/03 05:28:08;;;;;;;8.25;4.55;;;0.80;99.90;;;;;;6064551;23;95520;-75
2023/04/03 05:30:35;;;;;;;8.85;4.00;;;0.80;99.90;;;;;;6064714;23;92911;-75
2023/04/03 05:33:03;;;;;;;6.78;3.55;;;0.80;99.90;;;;;;6063427;23;94801;-75
2023/04/03 05:35:41;;;;;;;6.07;3.63;;;0.80;99.90;;;;;;6066235;23;92483;-75
2023/04/03 05:38:11;;;;;;;6.55;4.38;;;0.90;99.90;;;;;;6064694;23;95400;-75
2023/04/03 05:40:38;;;;;;;8.45;3.58;;;0.90;99.90;;;;;;6089267;23;92560;-75
2023/04/03 05:43:05;;;;;;;7.10;4.07;;;0.90;99.90;;;;;;6040682;23;92346;-75
2023/04/03 05:45:35;;;;;;;6.53;4.03;;;0.90;99.90;;;;;;6064663;23;92492;-75
2023/04/03 05:48:02;;;;;;;9.48;3.53;;;1.00;99.90;;;;;;6064685;23;95345;-76
2023/04/03 05:50:31;;;;;;;7.55;3.55;;;1.10;99.90;;;;;;6064657;23;95532;-75
2023/04/03 05:52:59;;;;;;;6.28;3.60;;;1.10;99.90;;;;;;6040816;23;92540;-75
2023/04/03 05:55:28;;;;;;;9.93;3.78;;;1.10;99.90;;;;;;6065465;23;92312;-76
2023/04/03 05:57:55;;;;;;;7.32;3.85;;;1.20;99.90;;;;;;6063107;23;98039;-75
2023/04/03 06:00:22;;;;;;;6.57;3.78;;;1.20;99.90;;;;;;6064264;23;97780;-75
2023/04/03 06:02:58;;;;;;;6.70;3.40;;;1.30;99.90;;;;;;6065174;23;92900;-75
2023/04/03 06:05:25;;;;;;;6.72;3.20;;;1.40;99.90;;;;;;6066354;23;92390;-75
2023/04/03 06:07:52;;;;;;;8.18;3.38;;;1.50;99.90;;;;;;6089215;23;92970;-75
2023/04/03 06:10:19;;;;;;;8.25;3.38;;;1.60;99.90;;;;;;6064305;23;95515;-75
2023/04/03 06:12:47;;;;;;;5.28;3.15;;;1.80;99.90;;;;;;6064545;23;92549;-76
2023/04/03 06:15:15;;;;;;;6.40;3.00;;;2.10;99.90;;;;;;6064958;23;91753;-75
2023/04/03 06:17:42;;;;;;;5.80;3.05;;;2.60;99.90;;;;;;6064460;23;95733;-76
2023/04/03 06:20:09;;;;;;;5.03;3.13;;;3.40;99.90;;;;;;6040547;23;95786;-76
2023/04/03 06:22:36;;;;;;;3.72;2.63;;;4.30;99.90;;;;;;6064717;23;95494;-76
2023/04/03 06:25:04;;;;;;;5.97;2.53;;;5.20;99.90;;;;;;6066391;23;92435;-76
2023/04/03 06:27:31;;;;;;;6.43;2.70;;;6.10;99.90;;;;;;6064306;23;94128;-76
2023/04/03 06:29:58;;;;;;;5.90;3.45;;;6.70;99.90;;;;;;6089213;23;93018;-76
2023/04/03 06:32:26;;;;;;;3.67;2.67;;;7.30;99.90;;;;;;6040402;23;92418;-76
2023/04/03 06:34:53;;;;;;;6.22;2.75;;;7.70;99.90;;;;;;6064592;23;92508;-76
2023/04/03 06:37:22;;;;;;;6.00;2.70;;;8.10;99.90;;;;;;6064224;23;95728;-76
2023/04/03 06:39:49;;;;;;;6.05;2.95;;;8.30;99.90;;;;;;6066614;23;92969;-76
2023/04/03 06:42:17;;;;;;;5.30;2.85;;;8.30;99.90;;;;;;6064203;23;92348;-76
2023/04/03 06:44:54;;;;;;;7.75;3.25;;;8.50;99.70;;;;;;6064763;23;92514;-76
2023/04/03 06:47:21;;;;;;;5.70;2.55;;;8.60;99.10;;;;;;6064348;23;95539;-76
2023/04/03 06:49:48;;;;;;;8.35;2.72;;;8.80;98.90;;;;;;6066176;23;95391;-77
2023/04/03 06:52:15;;;;;;;4.85;2.67;;;8.80;98.40;;;;;;6064558;23;92360;-76
2023/04/03 06:54:42;;;;;;;3.33;2.55;;;8.70;98.10;;;;;;6040287;23;92528;-76
2023/04/03 06:57:09;;;;;;;7.05;3.05;;;8.90;98.50;;;;;;6064295;23;95698;-76
2023/04/03 06:59:36;;;;;;;4.13;2.80;;;9.00;98.30;;;;;;6039839;23;102073;-76
2023/04/03 07:02:03;;;;;;;2.90;2.53;;;9.20;97.80;;;;;;6040400;23;92346;-76
2023/04/03 07:04:30;;;;;;;4.68;2.50;;;9.30;97.70;;;;;;6066466;23;91664;-76
2023/04/03 07:06:57;;;;;;;5.25;2.92;;;9.20;97.30;;;;;;6064293;23;95932;-76
2023/04/03 07:09:25;;;;;;;3.97;2.53;;;9.20;97.20;;;;;;6063684;23;94032;-76
2023/04/03 07:11:52;;;;;;;6.03;2.67;;;8.90;97.30;;;;;;6066038;23;94784;-76
2023/04/03 07:14:18;;;;;;;4.70;2.85;;;8.70;97.50;;;;;;6095262;23;92394;-76
2023/04/03 07:16:45;;;;;;;5.97;2.58;;;8.40;97.80;;;;;;6069446;23;93078;-76
2023/04/03 07:19:12;;;;;;;4.70;2.83;;;8.30;97.80;;;;;;6095473;23;92947;-76
2023/04/03 07:21:41;;;;;;;5.13;2.70;;;8.40;98.40;;;;;;6095478;23;92390;-76
2023/04/03 07:24:08;;;;;;;3.45;2.45;;;8.50;98.30;;;;;;6095632;23;93005;-76
2023/04/03 07:26:37;;;;;;;4.78;2.70;;;8.80;98.10;;;;;;6069086;23;98918;-76
2023/04/03 07:29:04;;;;;;;4.93;2.50;;;9.20;97.30;;;;;;6095705;23;92672;-76
2023/04/03 07:31:31;;;;;;;4.60;2.50;;;9.20;96.60;;;;;;6095241;23;92864;-76
2023/04/03 07:33:58;;;;;;;6.15;3.00;;;9.50;96.60;;;;;;6069498;23;92564;-76
2023/04/03 07:36:25;;;;;;;5.57;3.45;;;9.50;96.10;;;;;;6093422;23;95607;-76
2023/04/03 07:38:52;;;;;;;4.72;2.85;;;10.00;96.40;;;;;;6095094;23;95376;-76
2023/04/03 07:41:22;;;;;;;6.20;3.25;;;10.30;95.50;;;;;;6045102;23;92874;-76
2023/04/03 07:43:49;;;;;;;3.33;2.75;;;10.80;95.10;;;;;;6069268;23;92394;-76
2023/04/03 07:46:17;;;;;;;3.75;2.92;;;11.30;94.40;;;;;;6068801;23;95667;-76
2023/04/03 07:48:45;;;;;;;5.50;2.88;;;11.60;93.30;;;;;;6094793;23;93058;-77
2023/04/03 07:51:12;;;;;;;4.25;3.03;;;12.00;93.20;;;;;;6069397;23;93118;-76
2023/04/03 07:53:39;;;;;;;3.28;2.40;;;12.10;90.90;;;;;;6095012;23;99187;-77
2023/04/03 07:56:07;;;;;;;3.75;2.70;;;12.20;89.90;;;;;;6070440;23;93272;-77
2023/04/03 07:58:34;;;;;;;2.47;2.25;;;12.20;89.50;;;;;;6068776;23;95317;-76
2023/04/03 08:01:01;;;;;;;4.47;2.50;;;12.10;89.40;;;;;;6069213;23;94862;-76
2023/04/03 08:03:28;;;;;;;6.13;3.33;;;12.10;87.00;;;;;;6046201;23;92442;-77
2023/04/03 08:06:03;;;;;;;6.00;3.85;;;12.30;86.60;;;;;;6096270;23;93007;-76
2023/04/03 08:08:32;;;;;;;7.85;7.35;;;12.70;85.90;;;;;;6096158;23;92974;-76
2023/04/03 08:11:02;;;;;;;12.20;11.30;;;13.00;83.30;;;;;;6096532;23;92419;-77
2023/04/03 08:13:30;;;;;;;4.90;4.50;;;13.20;80.70;;;;;;6095197;23;92830;-77
2023/04/03 08:15:58;;;;;;;5.60;5.10;;;13.70;77.90;;;;;;6096187;23;93052;-77
2023/04/03 08:18:26;;;;;;;10.43;9.98;;;13.90;76.00;;;;;;6096777;23;92901;-77
2023/04/03 08:20:53;;;;;;;4.88;4.57;;;14.40;77.30;;;;;;6069538;23;92510;-77
2023/04/03 08:23:20;;;;;;;8.10;7.60;;;14.80;74.20;;;;;;6096389;23;92440;-77
2023/04/03 08:25:47;;;;;;;6.18;5.75;;;14.90;70.40;;;;;;6044141;23;96496;-77
2023/04/03 08:28:14;;;;;;;4.78;4.45;;;15.00;69.70;;;;;;6069734;23;97968;-76
2023/04/03 08:30:42;;;;;;;6.53;6.03;;;15.10;70.00;;;;;;6070293;23;92427;-77
2023/04/03 08:33:10;;;;;;;9.55;9.02;;;15.00;68.50;;;;;;6096327;23;92326;-77
2023/04/03 08:35:41;;;;;;;9.60;8.95;;;15.00;69.40;;;;;;6095887;23;93082;-77
2023/04/03 08:38:09;;;;;;;5.70;5.22;;;15.00;68.90;;;;;;6069899;23;95403;-77
2023/04/03 08:40:36;;;;;;;3.42;1.90;;;14.50;66.80;;;;;;6069992;23;97709;-77
2023/04/03 08:43:15;;;;;;;3.40;1.58;;;14.40;67.80;;;;;;6070884;23;92013;-77
2023/04/03 08:45:45;;;;;;;4.78;1.63;;;14.10;68.30;;;;;;6069994;23;93306;-77
2023/04/03 08:48:15;;;;;;;2.78;1.60;;;13.80;68.70;;;;;;6070268;23;93032;-77
2023/04/03 08:50:47;;;;;;;5.78;2.03;;;13.30;70.50;;;;;;6094668;23;94786;-76
2023/04/03 08:53:32;;;;;;;2.83;1.95;;;12.70;72.00;;;;;;6096212;23;92399;-76
2023/04/03 08:56:04;;;;;;;2.47;1.90;;;12.20;72.40;;;;;;6096126;23;93099;-77
2023/04/03 08:58:40;;;;;;;2.05;1.65;;;11.50;74.70;;;;;;6096117;23;92879;-76
2023/04/03 09:01:35;;;;;;;3.10;2.15;;;11.10;75.20;;;;;;6096291;23;93198;-76
2023/04/03 09:04:03;;;;;;;4.13;2.00;;;10.50;76.30;;;;;;6094220;23;92410;-76
2023/04/03 09:06:32;;;;;;;3.05;1.73;;;10.10;76.90;;;;;;6069241;23;95834;-76
2023/04/03 09:09:13;;;;;;;3.38;1.98;;;9.80;77.60;;;;;;6096459;23;93072;-76
2023/04/03 09:12:12;;;;;;;4.20;1.75;;;9.70;78.90;;;;;;6070001;23;92487;-76
2023/04/03 09:15:02;;;;;;;4.95;1.75;;;9.40;78.70;;;;;;6070145;23;92374;-76
2023/04/03 09:17:44;;;;;;;3.58;1.45;;;9.00;79.40;;;;;;6086390;23;95810;-76
2023/04/03 09:20:25;;;;;;;3.38;1.65;;;8.90;78.60;;;;;;6095860;23;95430;-76
2023/04/03 09:22:54;;;;;;;7.07;1.30;;;8.80;78.50;;;;;;6069764;23;92483;-76
2023/04/03 09:25:41;;;;;;;2.63;1.23;;;8.60;78.00;;;;;;6096097;23;92599;-77
2023/04/03 09:28:09;;;;;;;2.67;1.30;;;8.50;77.30;;;;;;6069899;23;93365;-76
2023/04/03 09:30:37;;;;;;;2.03;1.10;;;8.30;77.00;;;;;;6070041;23;92873;-76
2023/04/03 09:33:06;;;;;;;1.60;1.10;;;8.30;78.40;;;;;;6069634;23;92445;-76
2023/04/03 09:35:37;;;;;;;1.95;1.13;;;8.30;76.90;;;;;;6070240;23;92227;-76
2023/04/03 09:38:13;;;;;;;2.25;1.20;;;8.40;76.20;;;;;;6072068;23;93235;-76
2023/04/03 09:41:26;;;;;;;2.95;1.55;;;8.30;76.10;;;;;;6069890;23;92980;-76
2023/04/03 09:43:54;;;;;;;2.97;1.27;;;8.40;78.20;;;;;;6065711;23;95435;-76
2023/04/03 09:46:34;;;;;;;2.15;1.05;;;8.30;79.30;;;;;;6095911;23;92365;-76
2023/04/03 09:49:04;;;;;;;3.30;1.25;;;8.40;78.20;;;;;;6095500;23;93238;-76
2023/04/03 09:51:35;;;;;;;1.50;1.02;;;8.40;79.50;;;;;;6095774;23;92826;-76
2023/04/03 09:54:30;;;;;;;2.25;1.35;;;8.40;79.00;;;;;;6069906;23;92482;-76
2023/04/03 09:57:07;;;;;;;3.08;1.40;;;8.50;78.80;;;;;;6095811;23;92371;-76
2023/04/03 09:59:35;;;;;;;1.50;1.10;;;8.60;79.40;;;;;;6095785;23;93298;-76
2023/04/03 10:02:24;;;;;;;1.83;1.10;;;8.60;79.50;;;;;;6096189;23;92794;-76
2023/04/03 10:04:51;;;;;;;2.05;1.10;;;8.80;78.60;;;;;;6049068;23;92707;-76
2023/04/03 10:07:37;;;;;;;2.17;1.20;;;8.80;78.20;;;;;;6096082;23;92297;-77
2023/04/03 10:10:23;;;;;;;1.20;1.10;;;8.90;77.90;;;;;;6067983;23;95738;-76
2023/04/03 10:13:05;;;;;;;1.27;1.00;;;8.80;75.10;;;;;;6095284;23;95297;-76
2023/04/03 10:15:41;;;;;;;2.55;1.17;;;8.90;75.10;;;;;;6096054;23;92369;-76
2023/04/03 10:18:40;;;;;;;3.03;1.20;;;8.80;76.70;;;;;;6095948;23;92382;-76
2023/04/03 10:21:39;;;;;;;3.25;1.20;;;8.90;75.70;;;;;;6095533;23;93230;-76
2023/04/03 10:24:30;;;;;;;2.20;1.10;;;9.00;75.20;;;;;;6092291;23;93015;-76
2023/04/03 10:27:15;;;;;;;1.95;1.00;;;9.00;74.30;;;;;;6095674;23;92368;-76
2023/04/03 10:30:14;;;;;;;2.83;1.08;;;9.10;73.90;;;;;;6096417;23;91547;-76
2023/04/03 10:32:47;;;;;;;1.55;1.15;;;9.00;73.50;;;;;;6045193;23;95839;-76
2023/04/03 10:35:38;;;;;;;1.67;1.27;;;9.10;74.60;;;;;;6095668;23;92880;-76
2023/04/03 10:38:20;;;;;;;1.73;1.10;;;9.20;75.30;;;;;;6094268;23;94718;-76
2023/04/03 10:40:53;;;;;;;1.05;0.90;;;9.20;75.30;;;;;;6095472;23;92384;-76
2023/04/03 10:43:36;;;;;;;2.60;1.48;;;9.10;71.00;;;;;;6095726;23;93101;-76
2023/04/03 10:46:12;;;;;;;2.75;1.10;;;9.10;71.10;;;;;;6069267;23;95940;-76
2023/04/03 10:48:52;;;;;;;1.33;1.20;;;9.10;72.90;;;;;;6095960;23;92300;-76
2023/04/03 10:51:56;;;;;;;2.08;1.20;;;9.20;71.60;;;;;;6095844;23;92294;-76
2023/04/03 10:54:31;;;;;;;1.67;1.23;;;9.30;71.30;;;;;;6095753;23;93149;-76
2023/04/03 10:57:06;;;;;;;3.15;1.10;;;9.20;71.80;;;;;;6045352;23;95392;-76
2023/04/03 10:59:44;;;;;;;1.00;0.90;;;9.30;70.40;;;;;;6069687;23;92404;-76
2023/04/03 11:02:27;;;;;;;4.47;1.53;;;9.40;71.00;;;;;;6069300;23;92376;-76
2023/04/03 11:05:13;;;;;;;2.08;1.10;;;9.50;70.20;;;;;;6067592;23;98181;-76
2023/04/03 11:07:46;;;;;;;2.03;1.20;;;9.50;70.40;;;;;;6069205;23;97840;-76
2023/04/03 11:10:35;;;;;;;1.20;1.08;;;9.60;71.10;;;;;;6069593;23;92452;-76
2023/04/03 11:13:25;;;;;;;1.55;1.05;;;9.60;71.30;;;;;;6068873;23;92520;-76
2023/04/03 11:15:53;;;;;;;2.80;1.20;;;9.70;70.20;;;;;;6095259;23;93228;-76
2023/04/03 11:18:39;;;;;;;1.63;0.98;;;9.60;70.40;;;;;;6044861;23;96005;-76
2023/04/03 11:21:26;;;;;;;1.75;0.75;;;9.60;69.70;;;;;;6095390;23;92323;-76
2023/04/03 11:23:58;;;;;;;3.03;1.13;;;9.50;69.90;;;;;;6045292;23;93235;-76
2023/04/03 11:26:30;;;;;;;2.78;1.20;;;9.50;70.60;;;;;;6069175;23;96012;-76
2023/04/03 11:29:07;;;;;;;2.53;1.20;;;9.50;71.00;;;;;;6068512;23;95463;-76
2023/04/03 11:32:22;;;;;;;1.90;1.40;;;9.70;71.20;;;;;;6094092;23;94785;-76
2023/04/03 11:34:53;;;;;;;2.65;0.98;;;9.70;70.80;;;;;;6056260;23;94444;-76
2023/04/03 11:37:38;;;;;;;1.65;1.20;;;9.60;69.70;;;;;;6095234;23;92975;-76
2023/04/03 11:40:18;;;;;;;4.85;1.27;;;9.70;69.30;;;;;;6068549;23;97677;-76
2023/04/03 11:43:00;;;;;;;2.65;1.27;;;9.70;70.00;;;;;;6069197;23;92418;-76
2023/04/03 11:45:35;;;;;;;2.80;0.98;;;9.70;70.00;;;;;;6069179;23;92399;-76
2023/04/03 11:48:17;;;;;;;2.17;1.40;;;9.80;68.60;;;;;;6068673;23;95735;-76
2023/04/03 11:50:50;;;;;;;1.67;1.42;;;9.80;68.70;;;;;;6095731;23;92795;-76
2023/04/03 11:53:17;;;;;;;1.50;1.20;;;9.80;69.80;;;;;;6095005;23;92320;-76
2023/04/03 11:55:50;;;;;;;2.83;1.30;;;9.80;68.60;;;;;;6095007;23;95058;-76
2023/04/03 11:58:32;;;;;;;2.53;1.40;;;9.80;68.60;;;;;;6093284;23;95376;-76
2023/04/03 12:01:02;;;;;;;3.63;1.42;;;9.90;69.40;;;;;;6094808;23;95262;-76
2023/04/03 12:03:32;;;;;;;1.55;1.27;;;9.80;70.20;;;;;;6095348;23;92987;-76
2023/04/03 12:06:14;;;;;;;2.47;1.35;;;9.80;70.20;;;;;;6094980;23;92402;-76
2023/04/03 12:08:41;;;;;;;1.98;1.20;;;9.80;70.80;;;;;;6068885;23;95639;-76
2023/04/03 12:11:08;;;;;;;2.80;1.25;;;9.90;70.00;;;;;;6068108;23;99476;-76
2023/04/03 12:14:02;;;;;;;5.30;1.02;;;9.90;70.30;;;;;;6068460;23;92521;-76
2023/04/03 12:16:39;;;;;;;1.90;1.30;;;10.00;69.90;;;;;;6069877;23;91702;-76
2023/04/03 12:19:40;;;;;;;1.70;1.05;;;10.10;69.50;;;;;;6068313;23;95664;-76
2023/04/03 12:22:15;;;;;;;2.30;1.33;;;10.10;69.30;;;;;;6044483;23;94001;-76
2023/04/03 12:24:49;;;;;;;2.92;1.27;;;10.10;69.30;;;;;;6043310;23;94931;-76
2023/04/03 12:27:22;;;;;;;4.35;1.58;;;10.10;69.30;;;;;;6044494;23;92463;-76
2023/04/03 12:30:04;;;;;;;3.40;1.30;;;10.00;68.90;;;;;;6094726;23;93284;-76
2023/04/03 12:32:42;;;;;;;3.20;1.52;;;10.10;68.80;;;;;;6068918;23;93462;-76
2023/04/03 12:35:28;;;;;;;1.40;1.00;;;10.20;70.10;;;;;;6068296;23;92994;-76
2023/04/03 12:38:08;;;;;;;2.17;1.40;;;10.20;68.50;;;;;;6069052;23;93070;-76
2023/04/03 12:40:53;;;;;;;2.88;1.27;;;10.30;70.00;;;;;;6068515;23;95755;-76
2023/04/03 12:43:50;;;;;;;1.88;1.40;;;10.30;68.70;;;;;;6096333;23;92880;-76
2023/04/03 12:46:22;;;;;;;4.55;1.73;;;10.40;68.30;;;;;;6069918;23;92419;-76
2023/04/03 12:48:59;;;;;;;3.17;1.17;;;10.40;68.40;;;;;;6096320;23;92363;-76
2023/04/03 12:51:37;;;;;;;3.03;1.27;;;10.40;69.20;;;;;;6043874;23;98382;-76
2023/04/03 12:54:16;;;;;;;2.10;1.13;;;10.40;68.40;;;;;;6069763;23;95407;-76
2023/04/03 12:56:43;;;;;;;1.50;1.40;;;10.40;68.50;;;;;;6096385;23;92391;-76
2023/04/03 12:59:23;;;;;;;2.92;1.60;;;10.30;68.50;;;;;;6070011;23;92387;-76
2023/04/03 13:02:01;;;;;;;2.17;1.30;;;10.30;68.30;;;;;;6096123;23;93195;-76
2023/04/03 13:04:30;;;;;;;4.60;1.25;;;10.30;68.80;;;;;;6095898;23;93146;-79
2023/04/03 13:06:57;;;;;;;2.33;1.35;;;10.30;68.10;;;;;;6096262;23;92290;-79
2023/04/03 13:09:28;;;;;;;3.25;1.52;;;10.30;67.90;;;;;;6096432;23;91544;-78
2023/04/03 13:12:11;;;;;;;3.15;1.50;;;10.40;68.20;;;;;;6096045;23;93224;-78
2023/04/03 13:14:38;;;;;;;2.37;1.30;;;10.60;69.40;;;;;;6095713;23;92896;-77
2023/04/03 13:17:16;;;;;;;1.92;1.50;;;10.50;68.30;;;;;;6094783;23;94675;-77
2023/04/03 13:19:47;;;;;;;2.85;1.48;;;10.60;68.00;;;;;;6069984;23;92661;-77